createdAt,value
2023-01-15T00:00:32.449Z,101284.06
2023-01-15T00:03:05.008Z,101279.28
2023-01-15T00:05:38.094Z,101285.38
2023-01-15T00:08:08.883Z,101286.22
2023-01-15T00:10:51.192Z,101287.03
2023-01-15T00:13:21.208Z,101291.47
2023-01-15T00:15:51.494Z,101288.31
2023-01-15T00:18:22.860Z,101300.34
2023-01-15T00:21:00.684Z,101303.94
2023-01-15T00:23:48.829Z,101276.66
2023-01-15T00:26:52.376Z,101261.84
2023-01-15T00:29:24.893Z,101256.75
2023-01-15T00:32:00.448Z,101248.50
2023-01-15T00:34:33.229Z,101245.00
2023-01-15T00:37:03.335Z,101249.78
2023-01-15T00:39:33.991Z,101250.09
2023-01-15T00:42:04.856Z,101254.69
2023-01-15T00:44:35.098Z,101253.06
2023-01-15T00:47:05.047Z,101247.13
2023-01-15T00:49:37.587Z,101254.88
2023-01-15T00:52:08.208Z,101253.22
2023-01-15T00:54:39.069Z,101252.88
2023-01-15T00:57:11.818Z,101244.84
2023-01-15T00:59:41.957Z,101237.94
2023-01-15T01:02:12.039Z,101236.59
2023-01-15T01:04:44.605Z,101236.94
2023-01-15T01:07:14.920Z,101242.00
2023-01-15T01:09:44.957Z,101238.41
2023-01-15T01:12:16.058Z,101234.47
2023-01-15T01:14:46.438Z,101231.84
2023-01-15T01:17:16.254Z,101223.97
2023-01-15T01:19:48.774Z,101240.56
2023-01-15T01:22:19.366Z,101234.34
2023-01-15T01:24:49.377Z,101225.66
2023-01-15T01:27:19.978Z,101220.91
2023-01-15T01:29:50.639Z,101219.53
2023-01-15T01:32:21.029Z,101225.81
2023-01-15T01:34:53.543Z,101230.38
2023-01-15T01:37:23.602Z,101221.81
2023-01-15T01:39:56.108Z,101214.09
2023-01-15T01:42:26.675Z,101215.91
2023-01-15T01:45:25.943Z,101212.44
2023-01-15T01:48:00.451Z,101213.91
2023-01-15T01:50:36.600Z,101208.34
2023-01-15T01:53:11.840Z,101218.03
2023-01-15T01:55:43.087Z,101218.19
2023-01-15T01:58:16.410Z,101217.56
2023-01-15T02:00:51.574Z,101211.28
2023-01-15T02:03:28.290Z,101211.00
2023-01-15T02:06:05.437Z,101213.44
2023-01-15T02:08:35.739Z,101208.66
2023-01-15T02:11:06.776Z,101207.53
2023-01-15T02:13:42.824Z,101206.38
2023-01-15T02:16:24.257Z,101208.03
2023-01-15T02:19:03.946Z,101210.81
2023-01-15T02:21:56.050Z,101200.50
2023-01-15T02:24:40.113Z,101202.78
2023-01-15T02:27:30.084Z,101213.13
2023-01-15T02:30:08.715Z,101208.66
2023-01-15T02:32:46.702Z,101205.41
2023-01-15T02:35:24.980Z,101195.69
2023-01-15T02:38:02.510Z,101208.03
2023-01-15T02:40:35.329Z,101205.53
2023-01-15T02:43:09.549Z,101200.59
2023-01-15T02:45:45.655Z,101207.66
2023-01-15T02:48:20.576Z,101210.78
2023-01-15T02:50:57.482Z,101205.53
2023-01-15T02:53:32.763Z,101206.19
2023-01-15T02:56:11.528Z,101211.25
2023-01-15T02:58:46.787Z,101206.00
2023-01-15T03:01:22.445Z,101208.63
2023-01-15T03:04:02.485Z,101199.06
2023-01-15T03:06:43.634Z,101205.34
2023-01-15T03:09:14.927Z,101206.81
2023-01-15T03:11:52.213Z,101212.38
2023-01-15T03:14:33.545Z,101213.31
2023-01-15T03:17:15.122Z,101216.78
2023-01-15T03:19:53.942Z,101223.00
2023-01-15T03:22:30.749Z,101222.50
2023-01-15T03:25:15.812Z,101220.38
2023-01-15T03:27:45.703Z,101235.13
2023-01-15T03:30:22.858Z,101237.13
2023-01-15T03:32:53.765Z,101235.75
2023-01-15T03:35:49.583Z,101242.81
2023-01-15T03:38:24.119Z,101240.66
2023-01-15T03:41:11.223Z,101232.94
2023-01-15T03:43:54.111Z,101233.25
2023-01-15T03:46:45.342Z,101246.72
2023-01-15T03:49:28.527Z,101247.03
2023-01-15T03:52:07.483Z,101257.66
2023-01-15T03:54:52.529Z,101251.63
2023-01-15T03:57:35.058Z,101266.38
2023-01-15T04:00:15.392Z,101270.63
2023-01-15T04:02:50.518Z,101271.78
2023-01-15T04:05:21.485Z,101281.63
2023-01-15T04:07:54.068Z,101271.56
2023-01-15T04:10:24.565Z,101281.41
2023-01-15T04:12:55.151Z,101272.50
2023-01-15T04:15:25.681Z,101277.59
2023-01-15T04:17:58.176Z,101270.69
2023-01-15T04:20:28.276Z,101283.28
2023-01-15T04:22:58.901Z,101287.53
2023-01-15T04:25:29.618Z,101291.47
2023-01-15T04:28:00.452Z,101293.44
2023-01-15T04:30:30.236Z,101304.06
2023-01-15T04:33:03.223Z,101298.50
2023-01-15T04:35:33.925Z,101299.63
2023-01-15T04:38:04.131Z,101307.38
2023-01-15T04:40:51.104Z,101320.00
2023-01-15T04:43:38.125Z,101310.78
2023-01-15T04:46:08.793Z,101309.13
2023-01-15T04:48:41.821Z,101309.13
2023-01-15T04:51:12.325Z,101308.63
2023-01-15T04:53:42.730Z,101315.03
2023-01-15T04:56:13.333Z,101315.84
2023-01-15T04:58:43.346Z,101328.16
2023-01-15T05:01:16.012Z,101327.84
2023-01-15T05:03:48.802Z,101328.16
2023-01-15T05:06:19.323Z,101336.22
2023-01-15T05:08:49.927Z,101340.94
2023-01-15T05:11:20.686Z,101341.47
2023-01-15T05:13:51.265Z,101352.00
2023-01-15T05:16:25.143Z,101350.53
2023-01-15T05:19:01.142Z,101343.81
2023-01-15T05:21:34.385Z,101348.44
2023-01-15T05:24:09.198Z,101345.56
2023-01-15T05:26:39.731Z,101350.41
2023-01-15T05:29:09.804Z,101353.03
2023-01-15T05:31:40.662Z,101354.59
2023-01-15T05:34:14.171Z,101358.88
2023-01-15T05:36:44.396Z,101359.06
2023-01-15T05:39:16.085Z,101361.22
2023-01-15T05:41:53.292Z,101362.03
2023-01-15T05:44:26.685Z,101366.47
2023-01-15T05:47:00.698Z,101371.75
2023-01-15T05:49:33.316Z,101378.66
2023-01-15T05:52:05.390Z,101377.19
2023-01-15T05:54:37.543Z,101380.50
2023-01-15T05:57:08.265Z,101377.38
2023-01-15T05:59:38.336Z,101388.25
2023-01-15T06:02:08.567Z,101393.50
2023-01-15T06:04:40.537Z,101391.22
2023-01-15T06:07:11.830Z,101394.19
2023-01-15T06:09:41.625Z,101390.75
2023-01-15T06:12:12.263Z,101406.56
2023-01-15T06:14:42.840Z,101407.44
2023-01-15T06:17:15.594Z,101403.72
2023-01-15T06:19:47.562Z,101396.78
2023-01-15T06:22:18.811Z,101396.38
2023-01-15T06:24:49.475Z,101401.72
2023-01-15T06:27:19.393Z,101401.16
2023-01-15T06:29:49.621Z,101404.44
2023-01-15T06:32:20.551Z,101393.72
2023-01-15T06:34:53.435Z,101405.56
2023-01-15T06:37:23.975Z,101406.50
2023-01-15T06:39:53.873Z,101402.13
2023-01-15T06:42:49.602Z,101411.69
2023-01-15T06:45:39.839Z,101413.19
2023-01-15T06:48:11.326Z,101411.53
2023-01-15T06:50:43.594Z,101404.72
2023-01-15T06:53:14.549Z,101400.69
2023-01-15T06:55:44.271Z,101392.63
2023-01-15T06:58:15.035Z,101399.81
2023-01-15T07:00:47.348Z,101405.03
2023-01-15T07:03:19.026Z,101401.66
2023-01-15T07:05:52.669Z,101405.16
2023-01-15T07:08:25.574Z,101405.75
2023-01-15T07:10:55.941Z,101405.63
2023-01-15T07:13:25.868Z,101400.28
2023-01-15T07:15:56.385Z,101398.94
2023-01-15T07:18:26.677Z,101400.28
2023-01-15T07:21:01.025Z,101389.16
2023-01-15T07:23:31.569Z,101397.28
2023-01-15T07:26:02.166Z,101390.84
2023-01-15T07:28:32.843Z,101395.25
2023-01-15T07:31:03.386Z,101392.78
2023-01-15T07:33:34.363Z,101382.59
2023-01-15T07:36:09.419Z,101386.84
2023-01-15T07:38:40.684Z,101390.41
2023-01-15T07:41:27.779Z,101385.81
2023-01-15T07:44:14.973Z,101387.72
2023-01-15T07:47:02.300Z,101384.41
2023-01-15T07:49:50.877Z,101387.19
2023-01-15T07:52:25.295Z,101382.34
2023-01-15T07:54:55.872Z,101380.75
2023-01-15T07:57:26.146Z,101377.06
2023-01-15T07:59:56.757Z,101375.38
2023-01-15T08:02:27.776Z,101369.28
2023-01-15T08:04:58.365Z,101369.16
2023-01-15T08:07:30.991Z,101372.16
2023-01-15T08:10:01.543Z,101373.84
2023-01-15T08:13:00.000Z,101364.53
2023-01-15T08:15:35.153Z,101361.72
2023-01-15T08:18:05.634Z,101361.00
2023-01-15T08:20:38.325Z,101350.31
2023-01-15T08:23:11.067Z,101348.13
2023-01-15T08:25:41.600Z,101348.75
2023-01-15T08:28:14.971Z,101349.34
2023-01-15T08:30:45.069Z,101340.53
2023-01-15T08:33:15.655Z,101354.47
2023-01-15T08:35:46.182Z,101335.09
2023-01-15T08:38:20.911Z,101340.47
2023-01-15T08:41:14.799Z,101345.38
2023-01-15T08:43:46.290Z,101335.56
2023-01-15T08:46:16.851Z,101340.72
2023-01-15T08:48:48.724Z,101328.41
2023-01-15T08:51:19.874Z,101333.16
2023-01-15T08:53:52.258Z,101331.88
2023-01-15T08:56:25.799Z,101335.03
2023-01-15T08:58:56.636Z,101329.66
2023-01-15T09:01:27.725Z,101331.53
2023-01-15T09:03:58.551Z,101323.63
2023-01-15T09:06:28.845Z,101321.28
2023-01-15T09:09:02.199Z,101315.38
2023-01-15T09:11:32.808Z,101313.41
2023-01-15T09:14:03.434Z,101303.84
2023-01-15T09:16:33.916Z,101296.72
2023-01-15T09:19:04.419Z,101288.50
2023-01-15T09:21:35.269Z,101293.16
2023-01-15T09:24:09.132Z,101284.03
2023-01-15T09:26:41.933Z,101279.31
2023-01-15T09:29:12.933Z,101277.94
2023-01-15T09:31:43.320Z,101273.69
2023-01-15T09:34:14.015Z,101271.09
2023-01-15T09:36:46.912Z,101263.31
2023-01-15T09:39:19.144Z,101259.94
2023-01-15T09:42:15.482Z,101254.97
2023-01-15T09:45:13.363Z,101250.69
2023-01-15T09:48:01.071Z,101245.56
2023-01-15T09:50:50.077Z,101238.78
2023-01-15T09:53:56.963Z,101238.09
2023-01-15T09:56:33.982Z,101237.50
2023-01-15T09:59:21.255Z,101229.59
2023-01-15T10:01:53.660Z,101218.13
2023-01-15T10:04:39.730Z,101224.75
2023-01-15T10:07:25.696Z,101212.50
2023-01-15T10:10:04.627Z,101207.44
2023-01-15T10:12:44.948Z,101209.25
2023-01-15T10:15:36.147Z,101204.25
2023-01-15T10:18:09.419Z,101204.88
2023-01-15T10:21:26.481Z,101200.72
2023-01-15T10:24:08.094Z,101208.97
2023-01-15T10:26:44.000Z,101199.59
2023-01-15T10:29:29.199Z,101196.69
2023-01-15T10:32:06.156Z,101194.97
2023-01-15T10:35:13.740Z,101185.97
2023-01-15T10:37:52.409Z,101187.84
2023-01-15T10:40:44.222Z,101186.13
2023-01-15T10:43:25.958Z,101182.41
2023-01-15T10:46:04.433Z,101179.84
2023-01-15T10:48:42.266Z,101178.97
2023-01-15T10:51:22.837Z,101173.56
2023-01-15T10:53:58.238Z,101171.84
2023-01-15T10:56:39.923Z,101164.94
2023-01-15T10:59:22.758Z,101174.81
2023-01-15T11:01:58.276Z,101177.53
2023-01-15T11:04:32.533Z,101172.97
2023-01-15T11:07:03.758Z,101172.06
2023-01-15T11:09:36.589Z,101181.59
2023-01-15T11:12:39.789Z,101175.81
2023-01-15T11:15:42.854Z,101163.66
2023-01-15T11:18:45.148Z,101161.56
2023-01-15T11:21:20.258Z,101164.28
2023-01-15T11:23:52.002Z,101167.09
2023-01-15T11:26:27.421Z,101159.03
2023-01-15T11:29:00.877Z,101161.38
2023-01-15T11:31:39.991Z,101162.19
2023-01-15T11:34:24.772Z,101154.91
2023-01-15T11:37:05.881Z,101153.63
2023-01-15T11:39:36.358Z,101156.44
2023-01-15T11:42:25.421Z,101156.44
2023-01-15T11:45:15.406Z,101156.44
2023-01-15T11:48:12.367Z,101151.66
2023-01-15T11:50:56.341Z,101151.66
2023-01-15T11:53:38.030Z,101146.38
2023-01-15T11:56:17.643Z,101145.56
2023-01-15T11:59:06.045Z,101140.28
2023-01-15T12:02:00.200Z,101132.91
2023-01-15T12:04:40.695Z,101138.91
2023-01-15T12:07:19.049Z,101135.28
2023-01-15T12:10:43.468Z,101137.25
2023-01-15T12:13:34.479Z,101138.44
2023-01-15T12:16:14.998Z,101148.88
2023-01-15T12:19:02.368Z,101143.25
2023-01-15T12:22:21.815Z,101150.88
2023-01-15T12:25:31.720Z,101147.94
2023-01-15T12:28:13.901Z,101146.69
2023-01-15T12:31:01.888Z,101141.41
2023-01-15T12:33:52.389Z,101158.63
2023-01-15T12:36:34.030Z,101164.25
2023-01-15T12:39:13.806Z,101161.47
2023-01-15T12:45:05.006Z,101164.63
2023-01-15T12:47:46.740Z,101163.00
2023-01-15T12:50:54.250Z,101157.72
2023-01-15T12:53:38.902Z,101164.88
2023-01-15T12:56:23.429Z,101158.44
2023-01-15T12:59:09.743Z,101157.16
2023-01-15T13:01:58.807Z,101161.00
2023-01-15T13:04:45.196Z,101172.97
2023-01-15T13:07:27.677Z,101168.88
2023-01-15T13:10:09.565Z,101162.78
2023-01-15T13:12:57.454Z,101172.75
2023-01-15T13:15:41.619Z,101168.66
2023-01-15T13:18:28.365Z,101171.03
2023-01-15T13:21:04.544Z,101164.09
2023-01-15T13:24:04.478Z,101171.72
2023-01-15T13:27:03.923Z,101174.44
2023-01-15T13:29:52.081Z,101163.88
2023-01-15T13:32:34.664Z,101173.47
2023-01-15T13:35:15.409Z,101169.88
2023-01-15T13:37:56.065Z,101165.78
2023-01-15T13:40:34.291Z,101168.13
2023-01-15T13:43:35.163Z,101164.38
2023-01-15T13:46:12.943Z,101168.72
2023-01-15T13:48:52.477Z,101177.50
2023-01-15T13:51:40.424Z,101184.28
2023-01-15T13:54:19.485Z,101186.63
2023-01-15T13:56:51.467Z,101188.97
2023-01-15T13:59:46.685Z,101196.22
2023-01-15T14:02:35.844Z,101188.16
2023-01-15T14:05:32.994Z,101190.03
2023-01-15T14:08:23.600Z,101182.28
2023-01-15T14:10:58.583Z,101181.84
2023-01-15T14:14:25.513Z,101192.16
2023-01-15T14:17:21.102Z,101198.81
2023-01-15T14:20:37.467Z,101195.06
2023-01-15T14:23:36.394Z,101199.38
2023-01-15T14:26:21.200Z,101203.34
2023-01-15T14:29:22.003Z,101199.72
2023-01-15T14:32:13.875Z,101202.06
2023-01-15T14:34:58.892Z,101207.19
2023-01-15T14:37:40.685Z,101211.19
2023-01-15T14:40:36.857Z,101206.28
2023-01-15T14:43:28.055Z,101204.16
2023-01-15T14:46:13.037Z,101207.31
2023-01-15T14:48:47.575Z,101200.41
2023-01-15T14:51:23.286Z,101207.53
2023-01-15T14:54:02.240Z,101207.91
2023-01-15T14:56:39.982Z,101200.66
2023-01-15T14:59:26.143Z,101195.34
2023-01-15T15:02:05.093Z,101207.78
2023-01-15T15:04:43.012Z,101204.50
2023-01-15T15:07:18.163Z,101204.81
2023-01-15T15:09:55.409Z,101216.41
2023-01-15T15:12:41.009Z,101208.25
2023-01-15T15:15:20.583Z,101212.53
2023-01-15T15:18:06.535Z,101214.41
2023-01-15T15:20:58.561Z,101219.56
2023-01-15T15:23:40.239Z,101217.44
2023-01-15T15:27:07.428Z,101221.75
2023-01-15T15:29:43.879Z,101225.59
2023-01-15T15:32:21.408Z,101233.56
2023-01-15T15:35:02.305Z,101232.25
2023-01-15T15:37:35.265Z,101235.44
2023-01-15T15:40:26.741Z,101232.94
2023-01-15T15:43:32.985Z,101238.44
2023-01-15T15:46:42.611Z,101235.81
2023-01-15T15:49:14.639Z,101239.31
2023-01-15T15:52:02.878Z,101234.88
2023-01-15T15:54:48.474Z,101236.38
2023-01-15T15:57:24.265Z,101243.16
2023-01-15T16:00:09.747Z,101237.88
2023-01-15T16:02:45.983Z,101243.03
2023-01-15T16:05:31.913Z,101247.81
2023-01-15T16:08:23.156Z,101250.97
2023-01-15T16:11:01.862Z,101248.16
2023-01-15T16:13:39.328Z,101246.88
2023-01-15T16:16:13.705Z,101257.59
2023-01-15T16:18:53.137Z,101254.81
2023-01-15T16:21:33.088Z,101253.16
2023-01-15T16:24:30.316Z,101256.31
2023-01-15T16:27:08.323Z,101255.84
2023-01-15T16:29:50.863Z,101260.59
2023-01-15T16:32:32.280Z,101266.56
2023-01-15T16:35:23.378Z,101265.28
2023-01-15T16:38:00.679Z,101262.00
2023-01-15T16:40:37.755Z,101261.50
2023-01-15T16:43:17.973Z,101270.28
2023-01-15T16:46:05.879Z,101267.34
2023-01-15T16:48:48.175Z,101269.97
2023-01-15T16:51:44.497Z,101270.69
2023-01-15T16:54:51.725Z,101269.72
2023-01-15T16:57:37.570Z,101274.84
2023-01-15T17:00:31.173Z,101280.00
2023-01-15T17:03:03.217Z,101272.72
2023-01-15T17:05:37.412Z,101283.94
2023-01-15T17:08:27.565Z,101281.16
2023-01-15T17:11:02.229Z,101285.09
2023-01-15T17:13:42.639Z,101285.09
2023-01-15T17:16:23.726Z,101287.44
2023-01-15T17:18:58.889Z,101285.78
2023-01-15T17:21:32.240Z,101291.38
2023-01-15T17:24:17.227Z,101288.94
2023-01-15T17:26:49.247Z,101290.44
2023-01-15T17:29:20.724Z,101287.16
2023-01-15T17:31:52.071Z,101289.97
2023-01-15T17:34:25.736Z,101288.31
2023-01-15T17:37:05.768Z,101289.47
2023-01-15T17:39:38.953Z,101287.34
2023-01-15T17:42:17.890Z,101286.84
2023-01-15T17:44:59.091Z,101288.31
2023-01-15T17:47:30.583Z,101288.66
2023-01-15T17:50:04.922Z,101285.38
2023-01-15T17:52:41.463Z,101290.19
2023-01-15T17:55:34.450Z,101290.50
2023-01-15T17:58:30.154Z,101283.59
2023-01-15T18:01:23.990Z,101281.94
2023-01-15T18:04:15.861Z,101286.75
2023-01-15T18:06:56.139Z,101287.06
2023-01-15T18:09:42.137Z,101277.00
2023-01-15T18:12:17.025Z,101285.41
2023-01-15T18:14:50.657Z,101271.41
2023-01-15T18:17:24.362Z,101285.41
2023-01-15T18:20:02.602Z,101279.00
2023-01-15T18:22:34.326Z,101274.56
2023-01-15T18:25:07.874Z,101279.00
2023-01-15T18:27:45.436Z,101270.59
2023-01-15T18:30:19.743Z,101279.00
2023-01-15T18:33:02.631Z,101287.41
2023-01-15T18:35:36.840Z,101292.53
2023-01-15T18:38:09.140Z,101290.06
2023-01-15T18:40:43.088Z,101282.34
2023-01-15T18:43:37.307Z,101277.41
2023-01-15T18:46:31.055Z,101287.66
2023-01-15T18:49:03.261Z,101279.91
2023-01-15T18:51:35.162Z,101281.91
2023-01-15T18:54:06.824Z,101283.06
2023-01-15T18:56:48.410Z,101285.38
2023-01-15T18:59:22.501Z,101282.91
2023-01-15T19:02:07.370Z,101280.13
2023-01-15T19:04:42.957Z,101272.03
2023-01-15T19:07:19.674Z,101268.72
2023-01-15T19:09:59.756Z,101273.53
2023-01-15T19:12:31.638Z,101269.44
2023-01-15T19:15:26.634Z,101270.59
2023-01-15T19:18:20.295Z,101267.78
2023-01-15T19:20:52.427Z,101275.69
2023-01-15T19:23:26.124Z,101268.13
2023-01-15T19:25:59.261Z,101263.69
2023-01-15T19:28:39.884Z,101274.06
2023-01-15T19:31:30.227Z,101267.63
2023-01-15T19:34:32.141Z,101268.31
2023-01-15T19:37:01.672Z,101272.59
2023-01-15T19:39:34.761Z,101268.97
2023-01-15T19:42:24.996Z,101272.47
2023-01-15T19:48:39.679Z,101269.03
2023-01-15T19:51:11.479Z,101262.44
2023-01-15T19:53:43.915Z,101266.06
2023-01-15T19:56:18.037Z,101262.78
2023-01-15T19:58:50.532Z,101261.94
2023-01-15T20:01:24.160Z,101261.47
2023-01-15T20:04:01.115Z,101266.59
2023-01-15T20:06:47.341Z,101261.31
2023-01-15T20:09:18.141Z,101261.97
2023-01-15T20:12:01.869Z,101260.84
2023-01-15T20:14:36.134Z,101250.75
2023-01-15T20:17:08.522Z,101256.38
2023-01-15T20:19:50.596Z,101254.38
2023-01-15T20:22:28.496Z,101255.53
2023-01-15T20:25:01.989Z,101251.06
2023-01-15T20:27:43.165Z,101252.22
2023-01-15T20:30:23.333Z,101251.78
2023-01-15T20:33:00.689Z,101255.72
2023-01-15T20:35:43.851Z,101254.06
2023-01-15T20:38:17.956Z,101244.03
2023-01-15T20:40:50.761Z,101241.22
2023-01-15T20:43:44.028Z,101236.44
2023-01-15T20:46:16.202Z,101241.22
2023-01-15T20:49:04.086Z,101235.97
2023-01-15T20:51:36.150Z,101242.38
2023-01-15T20:54:08.823Z,101244.03
2023-01-15T20:56:46.074Z,101239.25
2023-01-15T20:59:18.126Z,101228.38
2023-01-15T21:01:54.883Z,101224.78
2023-01-15T21:04:26.337Z,101226.75
2023-01-15T21:07:03.624Z,101231.53
2023-01-15T21:09:37.376Z,101227.88
2023-01-15T21:12:22.095Z,101223.13
2023-01-15T21:14:52.837Z,101219.00
2023-01-15T21:17:26.391Z,101212.59
2023-01-15T21:20:03.919Z,101215.75
2023-01-15T21:22:37.710Z,101213.25
2023-01-15T21:25:16.021Z,101206.84
2023-01-15T21:27:55.137Z,101191.19
2023-01-15T21:30:35.099Z,101187.59
2023-01-15T21:33:08.864Z,101184.63
2023-01-15T21:35:44.616Z,101168.97
2023-01-15T21:38:23.313Z,101166.19
2023-01-15T21:40:58.264Z,101164.56
2023-01-15T21:43:45.874Z,101167.69
2023-01-15T21:46:16.528Z,101170.00
2023-01-15T21:48:47.074Z,101167.53
2023-01-15T21:51:17.768Z,101167.88
2023-01-15T21:53:54.164Z,101163.44
2023-01-15T21:56:26.520Z,101155.69
2023-01-15T21:58:59.274Z,101156.34
2023-01-15T22:01:31.624Z,101156.72
2023-01-15T22:04:07.139Z,101149.81
2023-01-15T22:07:25.941Z,101146.53
2023-01-15T22:10:03.624Z,101147.19
2023-01-15T22:12:38.965Z,101152.78
2023-01-15T22:15:16.571Z,101147.19
2023-01-15T22:17:48.931Z,101144.38
2023-01-15T22:20:20.115Z,101135.19
2023-01-15T22:22:52.252Z,101138.47
2023-01-15T22:25:25.071Z,101139.63
2023-01-15T22:27:55.150Z,101135.97
2023-01-15T22:30:25.922Z,101141.59
2023-01-15T22:33:01.713Z,101136.34
2023-01-15T22:35:32.907Z,101141.44
2023-01-15T22:38:03.136Z,101130.59
2023-01-15T22:40:39.287Z,101138.13
2023-01-15T22:43:09.874Z,101133.72
2023-01-15T22:45:41.050Z,101139.31
2023-01-15T22:48:15.703Z,101137.34
2023-01-15T22:50:46.866Z,101135.34
2023-01-15T22:53:19.078Z,101137.84
2023-01-15T22:56:02.182Z,101142.28
2023-01-15T22:58:33.072Z,101145.88
2023-01-15T23:01:04.596Z,101149.50
2023-01-15T23:03:38.864Z,101146.72
2023-01-15T23:06:16.228Z,101151.13
2023-01-15T23:08:48.723Z,101149.16
2023-01-15T23:11:21.585Z,101153.13
2023-01-15T23:13:52.056Z,101163.50
2023-01-15T23:16:23.363Z,101159.88
2023-01-15T23:18:53.572Z,101155.44
2023-01-15T23:21:28.523Z,101164.31
2023-01-15T23:24:01.141Z,101165.47
2023-01-15T23:26:36.167Z,101164.66
2023-01-15T23:29:07.136Z,101166.63
2023-01-15T23:31:38.283Z,101173.06
2023-01-15T23:34:10.893Z,101174.19
2023-01-15T23:36:41.524Z,101168.91
2023-01-15T23:39:11.713Z,101161.72
2023-01-15T23:42:00.398Z,101161.22
2023-01-15T23:44:47.807Z,101165.81
2023-01-15T23:47:18.563Z,101156.13
2023-01-15T23:49:49.661Z,101158.78
2023-01-15T23:52:20.518Z,101155.97
2023-01-15T23:54:51.175Z,101155.13
2023-01-15T23:57:23.686Z,101153.50
2023-01-15T23:59:55.027Z,101152.19
